sensor_id;sensor_type;location;lat;lon;timestamp;P1;durP1;ratioP1;P2;durP2;ratioP2
69463;SDS011;56665;41.106;16.688;2023-04-29T00:00:37;5.35;;;2.50;;
69463;SDS011;56665;41.106;16.688;2023-04-29T00:03:42;5.53;;;2.35;;
69463;SDS011;56665;41.106;16.688;2023-04-29T00:06:47;4.07;;;2.38;;
69463;SDS011;56665;41.106;16.688;2023-04-29T00:09:50;5.43;;;2.50;;
69463;SDS011;56665;41.106;16.688;2023-04-29T00:12:55;4.75;;;2.15;;
69463;SDS011;56665;41.106;16.688;2023-04-29T00:15:58;4.93;;;2.58;;
69463;SDS011;56665;41.106;16.688;2023-04-29T00:19:04;5.70;;;2.20;;
69463;SDS011;56665;41.106;16.688;2023-04-29T00:22:08;3.85;;;2.20;;
69463;SDS011;56665;41.106;16.688;2023-04-29T00:25:16;7.57;;;2.60;;
69463;SDS011;56665;41.106;16.688;2023-04-29T00:28:20;3.25;;;2.10;;
69463;SDS011;56665;41.106;16.688;2023-04-29T00:31:25;4.80;;;2.22;;
69463;SDS011;56665;41.106;16.688;2023-04-29T00:34:29;5.15;;;2.50;;
69463;SDS011;56665;41.106;16.688;2023-04-29T00:37:32;3.78;;;2.10;;
69463;SDS011;56665;41.106;16.688;2023-04-29T00:40:37;3.90;;;2.00;;
69463;SDS011;56665;41.106;16.688;2023-04-29T00:43:41;6.70;;;2.17;;
69463;SDS011;56665;41.106;16.688;2023-04-29T00:46:45;4.75;;;2.10;;
69463;SDS011;56665;41.106;16.688;2023-04-29T00:49:50;4.95;;;2.80;;
69463;SDS011;56665;41.106;16.688;2023-04-29T00:52:54;5.63;;;2.40;;
69463;SDS011;56665;41.106;16.688;2023-04-29T00:55:59;5.53;;;2.30;;
69463;SDS011;56665;41.106;16.688;2023-04-29T00:59:04;4.63;;;2.15;;
69463;SDS011;56665;41.106;16.688;2023-04-29T01:02:09;5.07;;;2.33;;
69463;SDS011;56665;41.106;16.688;2023-04-29T01:05:13;4.30;;;2.00;;
69463;SDS011;56665;41.106;16.688;2023-04-29T01:08:30;4.60;;;2.10;;
69463;SDS011;56665;41.106;16.688;2023-04-29T01:18:40;4.63;;;2.20;;
69463;SDS011;56665;41.106;16.688;2023-04-29T01:21:50;3.53;;;2.05;;
69463;SDS011;56665;41.106;16.688;2023-04-29T01:24:54;3.90;;;1.83;;
69463;SDS011;56665;41.106;16.688;2023-04-29T01:32:12;4.35;;;2.00;;
69463;SDS011;56665;41.106;16.688;2023-04-29T01:45:19;4.60;;;2.00;;
69463;SDS011;56665;41.106;16.688;2023-04-29T01:48:24;3.15;;;1.73;;
69463;SDS011;56665;41.106;16.688;2023-04-29T01:51:30;3.22;;;1.80;;
69463;SDS011;56665;41.106;16.688;2023-04-29T01:54:33;4.28;;;1.70;;
69463;SDS011;56665;41.106;16.688;2023-04-29T01:57:41;3.55;;;1.70;;
69463;SDS011;56665;41.106;16.688;2023-04-29T02:00:55;3.87;;;1.83;;
69463;SDS011;56665;41.106;16.688;2023-04-29T02:03:59;3.63;;;1.70;;
69463;SDS011;56665;41.106;16.688;2023-04-29T02:07:05;2.97;;;1.63;;
69463;SDS011;56665;41.106;16.688;2023-04-29T02:10:09;4.28;;;1.50;;
69463;SDS011;56665;41.106;16.688;2023-04-29T02:13:16;4.35;;;1.77;;
69463;SDS011;56665;41.106;16.688;2023-04-29T02:16:20;3.50;;;1.50;;
69463;SDS011;56665;41.106;16.688;2023-04-29T02:19:30;2.92;;;1.42;;
69463;SDS011;56665;41.106;16.688;2023-04-29T02:22:34;5.10;;;1.52;;
69463;SDS011;56665;41.106;16.688;2023-04-29T02:25:39;4.57;;;1.60;;
69463;SDS011;56665;41.106;16.688;2023-04-29T02:28:43;4.32;;;1.63;;
69463;SDS011;56665;41.106;16.688;2023-04-29T02:31:47;2.73;;;1.30;;
69463;SDS011;56665;41.106;16.688;2023-04-29T02:34:53;2.85;;;1.30;;
69463;SDS011;56665;41.106;16.688;2023-04-29T02:37:58;5.03;;;1.80;;
69463;SDS011;56665;41.106;16.688;2023-04-29T02:41:02;4.07;;;1.60;;
69463;SDS011;56665;41.106;16.688;2023-04-29T02:44:07;3.58;;;1.55;;
69463;SDS011;56665;41.106;16.688;2023-04-29T02:47:11;3.10;;;1.40;;
69463;SDS011;56665;41.106;16.688;2023-04-29T02:50:15;3.13;;;1.42;;
69463;SDS011;56665;41.106;16.688;2023-04-29T02:53:19;3.83;;;1.65;;
69463;SDS011;56665;41.106;16.688;2023-04-29T02:56:24;5.60;;;1.60;;
69463;SDS011;56665;41.106;16.688;2023-04-29T02:59:27;3.05;;;1.52;;
69463;SDS011;56665;41.106;16.688;2023-04-29T03:02:32;4.03;;;1.87;;
69463;SDS011;56665;41.106;16.688;2023-04-29T03:05:37;3.47;;;1.48;;
69463;SDS011;56665;41.106;16.688;2023-04-29T03:08:41;4.20;;;1.35;;
69463;SDS011;56665;41.106;16.688;2023-04-29T03:11:45;2.58;;;1.20;;
69463;SDS011;56665;41.106;16.688;2023-04-29T03:14:50;4.10;;;1.52;;
69463;SDS011;56665;41.106;16.688;2023-04-29T03:17:56;3.63;;;1.40;;
69463;SDS011;56665;41.106;16.688;2023-04-29T03:21:04;2.72;;;1.60;;
69463;SDS011;56665;41.106;16.688;2023-04-29T03:24:07;2.97;;;1.30;;
69463;SDS011;56665;41.106;16.688;2023-04-29T03:27:13;2.40;;;1.17;;
69463;SDS011;56665;41.106;16.688;2023-04-29T03:30:18;2.85;;;1.52;;
69463;SDS011;56665;41.106;16.688;2023-04-29T03:33:26;3.83;;;1.40;;
69463;SDS011;56665;41.106;16.688;2023-04-29T03:36:30;3.63;;;1.90;;
69463;SDS011;56665;41.106;16.688;2023-04-29T03:39:38;5.05;;;1.58;;
69463;SDS011;56665;41.106;16.688;2023-04-29T03:42:42;4.60;;;1.40;;
69463;SDS011;56665;41.106;16.688;2023-04-29T03:45:47;2.83;;;1.40;;
69463;SDS011;56665;41.106;16.688;2023-04-29T03:48:55;4.27;;;1.53;;
69463;SDS011;56665;41.106;16.688;2023-04-29T03:52:00;4.95;;;1.67;;
69463;SDS011;56665;41.106;16.688;2023-04-29T03:55:05;3.65;;;1.30;;
69463;SDS011;56665;41.106;16.688;2023-04-29T03:58:10;3.03;;;1.17;;
69463;SDS011;56665;41.106;16.688;2023-04-29T04:01:13;3.25;;;1.58;;
69463;SDS011;56665;41.106;16.688;2023-04-29T04:04:21;3.87;;;1.70;;
69463;SDS011;56665;41.106;16.688;2023-04-29T04:07:27;4.05;;;1.42;;
69463;SDS011;56665;41.106;16.688;2023-04-29T04:10:51;5.10;;;1.45;;
69463;SDS011;56665;41.106;16.688;2023-04-29T04:14:09;3.45;;;1.20;;
69463;SDS011;56665;41.106;16.688;2023-04-29T04:17:13;5.93;;;1.83;;
69463;SDS011;56665;41.106;16.688;2023-04-29T04:20:19;5.53;;;1.63;;
69463;SDS011;56665;41.106;16.688;2023-04-29T04:23:25;3.00;;;1.60;;
69463;SDS011;56665;41.106;16.688;2023-04-29T04:26:31;3.88;;;1.80;;
69463;SDS011;56665;41.106;16.688;2023-04-29T04:29:43;4.70;;;1.92;;
69463;SDS011;56665;41.106;16.688;2023-04-29T04:32:53;7.90;;;1.90;;
69463;SDS011;56665;41.106;16.688;2023-04-29T04:35:57;6.63;;;1.83;;
69463;SDS011;56665;41.106;16.688;2023-04-29T04:39:03;4.50;;;1.80;;
69463;SDS011;56665;41.106;16.688;2023-04-29T04:42:08;5.07;;;1.85;;
69463;SDS011;56665;41.106;16.688;2023-04-29T04:45:12;4.20;;;1.70;;
69463;SDS011;56665;41.106;16.688;2023-04-29T04:48:26;4.07;;;1.30;;
69463;SDS011;56665;41.106;16.688;2023-04-29T04:51:30;5.30;;;1.80;;
69463;SDS011;56665;41.106;16.688;2023-04-29T04:54:34;4.13;;;1.70;;
69463;SDS011;56665;41.106;16.688;2023-04-29T04:57:49;4.22;;;1.80;;
69463;SDS011;56665;41.106;16.688;2023-04-29T05:00:53;5.75;;;1.73;;
69463;SDS011;56665;41.106;16.688;2023-04-29T05:03:56;5.50;;;2.10;;
69463;SDS011;56665;41.106;16.688;2023-04-29T05:07:01;4.00;;;1.43;;
69463;SDS011;56665;41.106;16.688;2023-04-29T05:10:09;3.85;;;1.85;;
69463;SDS011;56665;41.106;16.688;2023-04-29T05:13:27;3.85;;;1.35;;
69463;SDS011;56665;41.106;16.688;2023-04-29T05:16:31;5.43;;;1.90;;
69463;SDS011;56665;41.106;16.688;2023-04-29T05:19:36;5.63;;;2.63;;
69463;SDS011;56665;41.106;16.688;2023-04-29T05:22:40;7.13;;;3.10;;
69463;SDS011;56665;41.106;16.688;2023-04-29T05:25:44;6.30;;;3.67;;
69463;SDS011;56665;41.106;16.688;2023-04-29T05:28:48;8.23;;;3.95;;
69463;SDS011;56665;41.106;16.688;2023-04-29T05:31:54;10.15;;;4.85;;
69463;SDS011;56665;41.106;16.688;2023-04-29T05:35:00;9.30;;;4.45;;
69463;SDS011;56665;41.106;16.688;2023-04-29T05:38:04;11.23;;;4.68;;
69463;SDS011;56665;41.106;16.688;2023-04-29T05:41:17;10.18;;;4.97;;
69463;SDS011;56665;41.106;16.688;2023-04-29T05:44:44;10.20;;;5.00;;
69463;SDS011;56665;41.106;16.688;2023-04-29T05:47:51;8.40;;;4.80;;
69463;SDS011;56665;41.106;16.688;2023-04-29T05:50:55;9.18;;;4.43;;
69463;SDS011;56665;41.106;16.688;2023-04-29T05:54:00;9.38;;;5.43;;
69463;SDS011;56665;41.106;16.688;2023-04-29T05:57:11;8.88;;;4.90;;
69463;SDS011;56665;41.106;16.688;2023-04-29T06:00:17;10.60;;;5.35;;
69463;SDS011;56665;41.106;16.688;2023-04-29T06:03:21;10.60;;;5.05;;
69463;SDS011;56665;41.106;16.688;2023-04-29T06:06:31;8.27;;;4.57;;
69463;SDS011;56665;41.106;16.688;2023-04-29T06:10:04;8.10;;;4.50;;
69463;SDS011;56665;41.106;16.688;2023-04-29T06:13:09;8.38;;;4.32;;
69463;SDS011;56665;41.106;16.688;2023-04-29T06:16:14;7.90;;;3.92;;
69463;SDS011;56665;41.106;16.688;2023-04-29T06:19:19;7.25;;;3.50;;
69463;SDS011;56665;41.106;16.688;2023-04-29T06:22:25;7.63;;;3.80;;
69463;SDS011;56665;41.106;16.688;2023-04-29T06:25:33;6.90;;;3.90;;
69463;SDS011;56665;41.106;16.688;2023-04-29T06:28:39;7.00;;;4.40;;
69463;SDS011;56665;41.106;16.688;2023-04-29T06:31:43;8.85;;;4.22;;
69463;SDS011;56665;41.106;16.688;2023-04-29T06:34:49;5.75;;;3.25;;
69463;SDS011;56665;41.106;16.688;2023-04-29T06:38:07;7.38;;;3.38;;
69463;SDS011;56665;41.106;16.688;2023-04-29T06:41:14;7.50;;;3.38;;
69463;SDS011;56665;41.106;16.688;2023-04-29T06:44:38;9.00;;;3.10;;
69463;SDS011;56665;41.106;16.688;2023-04-29T06:48:06;7.17;;;3.30;;
69463;SDS011;56665;41.106;16.688;2023-04-29T06:51:22;5.60;;;3.15;;
69463;SDS011;56665;41.106;16.688;2023-04-29T06:54:27;8.95;;;4.03;;
69463;SDS011;56665;41.106;16.688;2023-04-29T06:57:47;15.70;;;6.80;;
69463;SDS011;56665;41.106;16.688;2023-04-29T07:00:50;13.02;;;6.55;;
69463;SDS011;56665;41.106;16.688;2023-04-29T07:03:55;14.17;;;5.93;;
69463;SDS011;56665;41.106;16.688;2023-04-29T07:07:01;14.52;;;6.38;;
69463;SDS011;56665;41.106;16.688;2023-04-29T07:10:05;13.75;;;5.70;;
69463;SDS011;56665;41.106;16.688;2023-04-29T07:13:10;12.65;;;5.35;;
69463;SDS011;56665;41.106;16.688;2023-04-29T07:16:15;9.35;;;5.50;;
69463;SDS011;56665;41.106;16.688;2023-04-29T07:19:22;14.15;;;6.03;;
69463;SDS011;56665;41.106;16.688;2023-04-29T07:22:26;12.57;;;6.27;;
69463;SDS011;56665;41.106;16.688;2023-04-29T07:25:30;10.90;;;5.78;;
69463;SDS011;56665;41.106;16.688;2023-04-29T07:28:36;12.52;;;7.38;;
69463;SDS011;56665;41.106;16.688;2023-04-29T07:31:40;10.95;;;6.30;;
69463;SDS011;56665;41.106;16.688;2023-04-29T07:34:44;7.60;;;5.10;;
69463;SDS011;56665;41.106;16.688;2023-04-29T07:37:48;8.27;;;5.43;;
69463;SDS011;56665;41.106;16.688;2023-04-29T07:40:52;10.50;;;4.90;;
69463;SDS011;56665;41.106;16.688;2023-04-29T07:43:56;11.85;;;5.20;;
69463;SDS011;56665;41.106;16.688;2023-04-29T07:47:00;10.70;;;5.75;;
69463;SDS011;56665;41.106;16.688;2023-04-29T07:50:06;9.60;;;5.82;;
69463;SDS011;56665;41.106;16.688;2023-04-29T07:53:11;13.83;;;5.60;;
69463;SDS011;56665;41.106;16.688;2023-04-29T07:56:15;7.50;;;4.60;;
69463;SDS011;56665;41.106;16.688;2023-04-29T07:59:19;9.13;;;4.88;;
69463;SDS011;56665;41.106;16.688;2023-04-29T08:02:25;9.75;;;5.10;;
69463;SDS011;56665;41.106;16.688;2023-04-29T08:05:29;10.95;;;4.40;;
69463;SDS011;56665;41.106;16.688;2023-04-29T08:08:33;8.37;;;4.83;;
69463;SDS011;56665;41.106;16.688;2023-04-29T08:11:37;6.65;;;4.28;;
69463;SDS011;56665;41.106;16.688;2023-04-29T08:14:42;9.25;;;5.90;;
69463;SDS011;56665;41.106;16.688;2023-04-29T08:17:46;14.57;;;6.88;;
69463;SDS011;56665;41.106;16.688;2023-04-29T08:20:53;10.77;;;6.18;;
69463;SDS011;56665;41.106;16.688;2023-04-29T08:23:58;12.13;;;7.63;;
69463;SDS011;56665;41.106;16.688;2023-04-29T08:27:02;11.10;;;5.22;;
69463;SDS011;56665;41.106;16.688;2023-04-29T08:30:07;13.98;;;5.55;;
69463;SDS011;56665;41.106;16.688;2023-04-29T08:33:11;14.48;;;5.70;;
69463;SDS011;56665;41.106;16.688;2023-04-29T08:36:15;5.80;;;3.95;;
69463;SDS011;56665;41.106;16.688;2023-04-29T08:39:19;8.10;;;3.90;;
69463;SDS011;56665;41.106;16.688;2023-04-29T08:42:32;6.45;;;3.60;;
69463;SDS011;56665;41.106;16.688;2023-04-29T08:45:40;18.83;;;4.40;;
69463;SDS011;56665;41.106;16.688;2023-04-29T08:48:46;6.13;;;3.25;;
69463;SDS011;56665;41.106;16.688;2023-04-29T08:51:51;6.70;;;3.33;;
69463;SDS011;56665;41.106;16.688;2023-04-29T08:54:55;5.47;;;2.90;;
69463;SDS011;56665;41.106;16.688;2023-04-29T08:58:00;10.43;;;3.05;;
69463;SDS011;56665;41.106;16.688;2023-04-29T09:01:06;6.28;;;2.67;;
69463;SDS011;56665;41.106;16.688;2023-04-29T09:07:29;6.65;;;2.80;;
69463;SDS011;56665;41.106;16.688;2023-04-29T09:10:36;7.47;;;2.93;;
69463;SDS011;56665;41.106;16.688;2023-04-29T09:13:40;7.10;;;2.88;;
69463;SDS011;56665;41.106;16.688;2023-04-29T09:16:45;6.68;;;2.78;;
69463;SDS011;56665;41.106;16.688;2023-04-29T09:19:52;11.45;;;3.55;;
69463;SDS011;56665;41.106;16.688;2023-04-29T09:22:56;11.05;;;2.58;;
69463;SDS011;56665;41.106;16.688;2023-04-29T09:26:03;7.77;;;3.40;;
69463;SDS011;56665;41.106;16.688;2023-04-29T09:29:08;12.38;;;3.53;;
69463;SDS011;56665;41.106;16.688;2023-04-29T09:32:17;9.20;;;3.40;;
69463;SDS011;56665;41.106;16.688;2023-04-29T09:35:24;15.05;;;3.55;;
69463;SDS011;56665;41.106;16.688;2023-04-29T09:38:29;14.98;;;3.45;;
69463;SDS011;56665;41.106;16.688;2023-04-29T09:41:38;7.27;;;3.17;;
69463;SDS011;56665;41.106;16.688;2023-04-29T09:44:57;11.43;;;4.10;;
69463;SDS011;56665;41.106;16.688;2023-04-29T09:48:04;7.95;;;4.05;;
69463;SDS011;56665;41.106;16.688;2023-04-29T09:51:11;11.02;;;4.05;;
69463;SDS011;56665;41.106;16.688;2023-04-29T09:54:22;10.88;;;4.55;;
69463;SDS011;56665;41.106;16.688;2023-04-29T09:57:38;8.93;;;3.83;;
69463;SDS011;56665;41.106;16.688;2023-04-29T10:00:42;8.85;;;3.85;;
69463;SDS011;56665;41.106;16.688;2023-04-29T10:03:46;10.82;;;4.65;;
69463;SDS011;56665;41.106;16.688;2023-04-29T10:06:52;10.85;;;5.18;;
69463;SDS011;56665;41.106;16.688;2023-04-29T10:10:00;11.15;;;5.80;;
69463;SDS011;56665;41.106;16.688;2023-04-29T10:13:07;16.43;;;5.20;;
69463;SDS011;56665;41.106;16.688;2023-04-29T10:16:18;8.95;;;3.95;;
69463;SDS011;56665;41.106;16.688;2023-04-29T10:19:38;8.43;;;3.83;;
69463;SDS011;56665;41.106;16.688;2023-04-29T10:23:07;7.60;;;3.72;;
69463;SDS011;56665;41.106;16.688;2023-04-29T10:26:15;5.88;;;2.88;;
69463;SDS011;56665;41.106;16.688;2023-04-29T10:29:21;4.80;;;2.40;;
69463;SDS011;56665;41.106;16.688;2023-04-29T10:32:27;5.63;;;2.78;;
69463;SDS011;56665;41.106;16.688;2023-04-29T10:35:32;7.70;;;2.83;;
69463;SDS011;56665;41.106;16.688;2023-04-29T10:38:47;5.97;;;3.10;;
69463;SDS011;56665;41.106;16.688;2023-04-29T10:41:55;4.20;;;2.70;;
69463;SDS011;56665;41.106;16.688;2023-04-29T10:45:33;6.30;;;2.30;;
69463;SDS011;56665;41.106;16.688;2023-04-29T10:48:37;4.65;;;2.50;;
69463;SDS011;56665;41.106;16.688;2023-04-29T10:51:44;4.15;;;2.50;;
69463;SDS011;56665;41.106;16.688;2023-04-29T10:55:01;7.97;;;2.80;;
69463;SDS011;56665;41.106;16.688;2023-04-29T11:01:41;8.75;;;2.45;;
69463;SDS011;56665;41.106;16.688;2023-04-29T11:11:26;3.35;;;1.95;;
69463;SDS011;56665;41.106;16.688;2023-04-29T11:14:52;4.15;;;1.95;;
69463;SDS011;56665;41.106;16.688;2023-04-29T11:17:57;5.22;;;1.98;;
69463;SDS011;56665;41.106;16.688;2023-04-29T11:24:10;2.90;;;1.80;;
69463;SDS011;56665;41.106;16.688;2023-04-29T11:27:14;5.18;;;2.58;;
69463;SDS011;56665;41.106;16.688;2023-04-29T11:30:19;5.38;;;2.20;;
69463;SDS011;56665;41.106;16.688;2023-04-29T11:33:23;3.13;;;1.83;;
69463;SDS011;56665;41.106;16.688;2023-04-29T11:36:32;4.53;;;1.90;;
69463;SDS011;56665;41.106;16.688;2023-04-29T11:39:38;8.80;;;2.03;;
69463;SDS011;56665;41.106;16.688;2023-04-29T11:42:46;3.47;;;1.55;;
69463;SDS011;56665;41.106;16.688;2023-04-29T11:45:52;3.80;;;2.10;;
69463;SDS011;56665;41.106;16.688;2023-04-29T11:48:56;4.97;;;2.27;;
69463;SDS011;56665;41.106;16.688;2023-04-29T11:52:00;7.15;;;2.65;;
69463;SDS011;56665;41.106;16.688;2023-04-29T11:55:04;6.43;;;2.70;;
69463;SDS011;56665;41.106;16.688;2023-04-29T11:58:11;3.03;;;1.58;;
69463;SDS011;56665;41.106;16.688;2023-04-29T12:01:16;4.28;;;1.90;;
69463;SDS011;56665;41.106;16.688;2023-04-29T12:04:24;5.17;;;2.10;;
69463;SDS011;56665;41.106;16.688;2023-04-29T12:07:28;3.30;;;2.10;;
69463;SDS011;56665;41.106;16.688;2023-04-29T12:10:34;3.83;;;1.88;;
69463;SDS011;56665;41.106;16.688;2023-04-29T12:13:41;3.92;;;1.90;;
69463;SDS011;56665;41.106;16.688;2023-04-29T12:16:46;4.00;;;2.08;;
69463;SDS011;56665;41.106;16.688;2023-04-29T12:19:51;2.83;;;1.90;;
69463;SDS011;56665;41.106;16.688;2023-04-29T12:22:56;3.58;;;1.67;;
69463;SDS011;56665;41.106;16.688;2023-04-29T12:26:02;17.05;;;3.00;;
69463;SDS011;56665;41.106;16.688;2023-04-29T12:29:08;4.97;;;1.77;;
69463;SDS011;56665;41.106;16.688;2023-04-29T12:32:23;7.47;;;3.67;;
69463;SDS011;56665;41.106;16.688;2023-04-29T12:35:28;4.07;;;1.70;;
69463;SDS011;56665;41.106;16.688;2023-04-29T12:38:35;4.47;;;1.90;;
69463;SDS011;56665;41.106;16.688;2023-04-29T12:41:39;3.20;;;2.10;;
69463;SDS011;56665;41.106;16.688;2023-04-29T12:44:48;5.05;;;2.42;;
69463;SDS011;56665;41.106;16.688;2023-04-29T12:47:52;4.20;;;2.00;;
69463;SDS011;56665;41.106;16.688;2023-04-29T12:51:00;5.13;;;2.40;;
69463;SDS011;56665;41.106;16.688;2023-04-29T12:54:06;5.95;;;3.33;;
69463;SDS011;56665;41.106;16.688;2023-04-29T12:57:10;4.78;;;2.10;;
69463;SDS011;56665;41.106;16.688;2023-04-29T13:00:16;4.40;;;2.30;;
69463;SDS011;56665;41.106;16.688;2023-04-29T13:03:22;4.85;;;2.40;;
69463;SDS011;56665;41.106;16.688;2023-04-29T13:06:27;3.80;;;2.20;;
69463;SDS011;56665;41.106;16.688;2023-04-29T13:09:31;4.20;;;2.15;;
69463;SDS011;56665;41.106;16.688;2023-04-29T13:12:36;4.43;;;1.92;;
69463;SDS011;56665;41.106;16.688;2023-04-29T13:15:40;4.90;;;2.20;;
69463;SDS011;56665;41.106;16.688;2023-04-29T13:18:44;6.75;;;2.63;;
69463;SDS011;56665;41.106;16.688;2023-04-29T13:21:48;3.67;;;2.20;;
69463;SDS011;56665;41.106;16.688;2023-04-29T13:24:54;4.80;;;2.20;;
69463;SDS011;56665;41.106;16.688;2023-04-29T13:27:58;5.22;;;2.05;;
69463;SDS011;56665;41.106;16.688;2023-04-29T13:31:02;4.30;;;2.30;;
69463;SDS011;56665;41.106;16.688;2023-04-29T13:34:05;4.95;;;2.38;;
69463;SDS011;56665;41.106;16.688;2023-04-29T13:37:09;5.87;;;2.57;;
69463;SDS011;56665;41.106;16.688;2023-04-29T13:40:14;5.88;;;2.38;;
69463;SDS011;56665;41.106;16.688;2023-04-29T13:43:20;4.78;;;2.00;;
69463;SDS011;56665;41.106;16.688;2023-04-29T13:46:25;3.20;;;2.20;;
69463;SDS011;56665;41.106;16.688;2023-04-29T13:49:30;3.70;;;1.90;;
69463;SDS011;56665;41.106;16.688;2023-04-29T13:52:34;4.90;;;2.27;;
69463;SDS011;56665;41.106;16.688;2023-04-29T13:55:37;5.82;;;2.10;;
69463;SDS011;56665;41.106;16.688;2023-04-29T13:58:45;3.55;;;2.05;;
69463;SDS011;56665;41.106;16.688;2023-04-29T14:01:52;4.93;;;2.22;;
69463;SDS011;56665;41.106;16.688;2023-04-29T14:04:56;5.38;;;2.03;;
69463;SDS011;56665;41.106;16.688;2023-04-29T14:08:01;3.60;;;2.03;;
69463;SDS011;56665;41.106;16.688;2023-04-29T14:11:06;3.65;;;1.77;;
69463;SDS011;56665;41.106;16.688;2023-04-29T14:14:10;4.60;;;2.00;;
69463;SDS011;56665;41.106;16.688;2023-04-29T14:17:14;3.80;;;1.52;;
69463;SDS011;56665;41.106;16.688;2023-04-29T14:20:18;4.28;;;1.80;;
69463;SDS011;56665;41.106;16.688;2023-04-29T14:23:22;4.80;;;1.90;;
69463;SDS011;56665;41.106;16.688;2023-04-29T14:26:26;4.82;;;1.77;;
69463;SDS011;56665;41.106;16.688;2023-04-29T14:29:31;3.72;;;1.80;;
69463;SDS011;56665;41.106;16.688;2023-04-29T14:32:35;3.95;;;1.88;;
69463;SDS011;56665;41.106;16.688;2023-04-29T14:35:42;4.90;;;2.72;;
69463;SDS011;56665;41.106;16.688;2023-04-29T14:38:47;4.70;;;2.90;;
69463;SDS011;56665;41.106;16.688;2023-04-29T14:41:51;5.28;;;2.72;;
69463;SDS011;56665;41.106;16.688;2023-04-29T14:44:54;5.70;;;2.88;;
69463;SDS011;56665;41.106;16.688;2023-04-29T14:48:02;3.78;;;2.38;;
69463;SDS011;56665;41.106;16.688;2023-04-29T14:51:06;4.68;;;2.50;;
69463;SDS011;56665;41.106;16.688;2023-04-29T14:54:12;4.97;;;2.13;;
69463;SDS011;56665;41.106;16.688;2023-04-29T14:57:16;4.53;;;2.00;;
69463;SDS011;56665;41.106;16.688;2023-04-29T15:00:20;4.32;;;2.00;;
69463;SDS011;56665;41.106;16.688;2023-04-29T15:03:25;3.25;;;1.90;;
69463;SDS011;56665;41.106;16.688;2023-04-29T15:06:29;4.82;;;2.20;;
69463;SDS011;56665;41.106;16.688;2023-04-29T15:09:34;5.93;;;2.13;;
69463;SDS011;56665;41.106;16.688;2023-04-29T15:12:38;4.80;;;3.05;;
69463;SDS011;56665;41.106;16.688;2023-04-29T15:15:42;7.03;;;2.42;;
69463;SDS011;56665;41.106;16.688;2023-04-29T15:18:46;6.88;;;2.50;;
69463;SDS011;56665;41.106;16.688;2023-04-29T15:21:51;5.80;;;2.10;;
69463;SDS011;56665;41.106;16.688;2023-04-29T15:24:55;7.17;;;2.30;;
69463;SDS011;56665;41.106;16.688;2023-04-29T15:27:59;6.30;;;1.90;;
69463;SDS011;56665;41.106;16.688;2023-04-29T15:31:04;6.05;;;2.25;;
69463;SDS011;56665;41.106;16.688;2023-04-29T15:34:07;4.82;;;2.60;;
69463;SDS011;56665;41.106;16.688;2023-04-29T15:37:12;5.55;;;2.67;;
69463;SDS011;56665;41.106;16.688;2023-04-29T15:40:17;5.63;;;2.30;;
69463;SDS011;56665;41.106;16.688;2023-04-29T15:43:20;4.60;;;2.15;;
69463;SDS011;56665;41.106;16.688;2023-04-29T15:46:24;6.80;;;2.40;;
69463;SDS011;56665;41.106;16.688;2023-04-29T15:49:30;6.97;;;2.25;;
69463;SDS011;56665;41.106;16.688;2023-04-29T15:52:34;5.13;;;2.53;;
69463;SDS011;56665;41.106;16.688;2023-04-29T15:55:38;8.83;;;3.20;;
69463;SDS011;56665;41.106;16.688;2023-04-29T15:58:43;8.90;;;2.97;;
69463;SDS011;56665;41.106;16.688;2023-04-29T16:01:46;8.23;;;2.72;;
69463;SDS011;56665;41.106;16.688;2023-04-29T16:04:50;9.52;;;2.67;;
69463;SDS011;56665;41.106;16.688;2023-04-29T16:07:55;8.02;;;3.03;;
69463;SDS011;56665;41.106;16.688;2023-04-29T16:11:02;5.87;;;2.77;;
69463;SDS011;56665;41.106;16.688;2023-04-29T16:14:08;5.65;;;2.15;;
69463;SDS011;56665;41.106;16.688;2023-04-29T16:17:13;7.43;;;2.80;;
69463;SDS011;56665;41.106;16.688;2023-04-29T16:20:18;9.32;;;2.47;;
69463;SDS011;56665;41.106;16.688;2023-04-29T16:23:23;4.57;;;2.20;;
69463;SDS011;56665;41.106;16.688;2023-04-29T16:26:26;5.87;;;2.40;;
69463;SDS011;56665;41.106;16.688;2023-04-29T16:29:30;6.93;;;2.78;;
69463;SDS011;56665;41.106;16.688;2023-04-29T16:32:34;6.93;;;3.20;;
69463;SDS011;56665;41.106;16.688;2023-04-29T16:35:39;8.82;;;4.00;;
69463;SDS011;56665;41.106;16.688;2023-04-29T16:38:44;13.82;;;5.78;;
69463;SDS011;56665;41.106;16.688;2023-04-29T16:41:49;14.13;;;6.33;;
69463;SDS011;56665;41.106;16.688;2023-04-29T16:44:54;10.57;;;5.30;;
69463;SDS011;56665;41.106;16.688;2023-04-29T16:47:58;9.75;;;4.65;;
69463;SDS011;56665;41.106;16.688;2023-04-29T16:51:03;8.90;;;4.50;;
69463;SDS011;56665;41.106;16.688;2023-04-29T16:54:07;8.52;;;4.68;;
69463;SDS011;56665;41.106;16.688;2023-04-29T16:57:12;8.43;;;4.40;;
69463;SDS011;56665;41.106;16.688;2023-04-29T17:00:16;8.05;;;4.55;;
69463;SDS011;56665;41.106;16.688;2023-04-29T17:03:19;10.68;;;4.60;;
69463;SDS011;56665;41.106;16.688;2023-04-29T17:06:23;10.68;;;5.40;;
69463;SDS011;56665;41.106;16.688;2023-04-29T17:09:28;11.13;;;6.40;;
69463;SDS011;56665;41.106;16.688;2023-04-29T17:12:31;12.60;;;8.13;;
69463;SDS011;56665;41.106;16.688;2023-04-29T17:15:36;18.65;;;9.63;;
69463;SDS011;56665;41.106;16.688;2023-04-29T17:18:40;23.45;;;12.70;;
69463;SDS011;56665;41.106;16.688;2023-04-29T17:21:46;21.75;;;12.75;;
69463;SDS011;56665;41.106;16.688;2023-04-29T17:24:50;19.80;;;11.50;;
69463;SDS011;56665;41.106;16.688;2023-04-29T17:27:54;15.63;;;7.80;;
69463;SDS011;56665;41.106;16.688;2023-04-29T17:30:59;11.70;;;6.38;;
69463;SDS011;56665;41.106;16.688;2023-04-29T17:34:03;11.77;;;6.45;;
69463;SDS011;56665;41.106;16.688;2023-04-29T17:37:10;8.75;;;5.28;;
69463;SDS011;56665;41.106;16.688;2023-04-29T17:40:14;15.23;;;7.00;;
69463;SDS011;56665;41.106;16.688;2023-04-29T17:43:17;9.03;;;5.33;;
69463;SDS011;56665;41.106;16.688;2023-04-29T17:46:23;10.63;;;5.47;;
69463;SDS011;56665;41.106;16.688;2023-04-29T17:49:28;10.27;;;5.70;;
69463;SDS011;56665;41.106;16.688;2023-04-29T17:52:32;10.90;;;5.68;;
69463;SDS011;56665;41.106;16.688;2023-04-29T17:55:39;8.80;;;5.68;;
69463;SDS011;56665;41.106;16.688;2023-04-29T17:58:45;10.83;;;6.40;;
69463;SDS011;56665;41.106;16.688;2023-04-29T18:01:49;10.70;;;6.30;;
69463;SDS011;56665;41.106;16.688;2023-04-29T18:04:53;11.13;;;6.50;;
69463;SDS011;56665;41.106;16.688;2023-04-29T18:07:57;13.45;;;7.28;;
69463;SDS011;56665;41.106;16.688;2023-04-29T18:11:01;9.55;;;6.03;;
69463;SDS011;56665;41.106;16.688;2023-04-29T18:14:04;11.43;;;6.17;;
69463;SDS011;56665;41.106;16.688;2023-04-29T18:17:10;8.73;;;5.40;;
69463;SDS011;56665;41.106;16.688;2023-04-29T18:20:13;9.88;;;6.30;;
69463;SDS011;56665;41.106;16.688;2023-04-29T18:23:19;10.75;;;5.82;;
69463;SDS011;56665;41.106;16.688;2023-04-29T18:26:23;8.07;;;5.85;;
69463;SDS011;56665;41.106;16.688;2023-04-29T18:29:29;8.30;;;5.20;;
69463;SDS011;56665;41.106;16.688;2023-04-29T18:32:32;8.80;;;5.32;;
69463;SDS011;56665;41.106;16.688;2023-04-29T18:35:37;8.52;;;4.22;;
69463;SDS011;56665;41.106;16.688;2023-04-29T18:38:40;8.32;;;4.40;;
69463;SDS011;56665;41.106;16.688;2023-04-29T18:41:45;9.02;;;5.18;;
69463;SDS011;56665;41.106;16.688;2023-04-29T18:44:49;8.93;;;5.83;;
69463;SDS011;56665;41.106;16.688;2023-04-29T18:47:51;11.68;;;5.90;;
69463;SDS011;56665;41.106;16.688;2023-04-29T18:50:55;11.13;;;5.70;;
69463;SDS011;56665;41.106;16.688;2023-04-29T18:54:06;8.60;;;5.45;;
69463;SDS011;56665;41.106;16.688;2023-04-29T18:57:10;9.77;;;5.40;;